createdAt,value
2022-09-15T00:02:03.493Z,100189.38
2022-09-15T00:04:30.294Z,100194.13
2022-09-15T00:06:56.901Z,100194.13
2022-09-15T00:09:23.462Z,100199.09
2022-09-15T00:11:50.171Z,100207.69
2022-09-15T00:14:16.729Z,100196.88
2022-09-15T00:16:43.434Z,100194.97
2022-09-15T00:19:10.112Z,100190.97
2022-09-15T00:21:39.160Z,100195.88
2022-09-15T00:24:06.480Z,100197.66
2022-09-15T00:26:33.248Z,100192.88
2022-09-15T00:29:00.741Z,100193.84
2022-09-15T00:31:28.983Z,100195.00
2022-09-15T00:33:57.342Z,100184.88
2022-09-15T00:36:25.446Z,100183.91
2022-09-15T00:38:52.193Z,100181.09
2022-09-15T00:41:21.028Z,100178.28
2022-09-15T00:43:59.743Z,100178.03
2022-09-15T00:46:30.590Z,100172.81
2022-09-15T00:49:09.270Z,100166.75
2022-09-15T00:51:40.505Z,100169.28
2022-09-15T00:54:11.818Z,100169.28
2022-09-15T00:56:39.019Z,100175.47
2022-09-15T00:59:08.885Z,100173.34
2022-09-15T01:01:35.799Z,100166.44
2022-09-15T01:04:02.797Z,100179.81
2022-09-15T01:06:36.763Z,100173.63
2022-09-15T01:09:07.995Z,100179.81
2022-09-15T01:11:35.297Z,100178.44
2022-09-15T01:14:02.186Z,100177.25
2022-09-15T01:16:50.780Z,100169.91
2022-09-15T01:19:48.065Z,100171.63
2022-09-15T01:22:20.918Z,100170.94
2022-09-15T01:25:08.888Z,100174.72
2022-09-15T01:27:52.045Z,100180.78
2022-09-15T01:30:22.852Z,100174.31
2022-09-15T01:33:04.544Z,100179.22
2022-09-15T01:36:09.596Z,100178.22
2022-09-15T01:38:39.679Z,100173.47
2022-09-15T01:41:28.145Z,100175.00
2022-09-15T01:44:06.810Z,100184.50
2022-09-15T01:46:36.483Z,100181.88
2022-09-15T01:49:05.203Z,100180.91
2022-09-15T01:51:33.508Z,100185.69
2022-09-15T01:54:03.985Z,100188.72
2022-09-15T01:56:30.669Z,100179.47
2022-09-15T01:58:57.674Z,100186.50
2022-09-15T02:01:43.889Z,100188.03
2022-09-15T02:04:27.957Z,100187.53
2022-09-15T02:07:13.120Z,100174.00
2022-09-15T02:10:32.834Z,100180.78
2022-09-15T02:13:17.189Z,100179.34
2022-09-15T02:15:51.776Z,100180.72
2022-09-15T02:18:24.372Z,100179.59
2022-09-15T02:20:57.805Z,100188.84
2022-09-15T02:23:28.965Z,100183.91
2022-09-15T02:26:08.584Z,100180.00
2022-09-15T02:28:37.313Z,100173.56
2022-09-15T02:31:09.272Z,100181.81
2022-09-15T02:33:40.772Z,100172.56
2022-09-15T02:36:08.111Z,100189.69
2022-09-15T02:38:39.111Z,100195.75
2022-09-15T02:41:06.029Z,100193.09
2022-09-15T02:43:34.251Z,100197.72
2022-09-15T02:46:00.921Z,100192.59
2022-09-15T02:48:27.539Z,100200.03
2022-09-15T02:50:54.140Z,100202.06
2022-09-15T02:53:20.729Z,100194.31
2022-09-15T02:55:47.282Z,100196.84
2022-09-15T02:58:13.888Z,100194.66
2022-09-15T03:00:40.514Z,100193.47
2022-09-15T03:03:07.082Z,100194.56
2022-09-15T03:05:33.667Z,100189.25
2022-09-15T03:08:00.353Z,100195.44
2022-09-15T03:10:26.896Z,100185.69
2022-09-15T03:12:54.457Z,100192.97
2022-09-15T03:15:23.643Z,100203.25
2022-09-15T03:17:50.427Z,100209.72
2022-09-15T03:20:22.449Z,100218.38
2022-09-15T03:22:49.710Z,100209.19
2022-09-15T03:25:17.419Z,100215.38
2022-09-15T03:27:44.113Z,100202.13
2022-09-15T03:30:11.185Z,100210.88
2022-09-15T03:32:37.934Z,100205.25
2022-09-15T03:35:05.920Z,100212.19
2022-09-15T03:37:32.947Z,100207.22
2022-09-15T03:39:59.864Z,100200.38
2022-09-15T03:42:26.897Z,100200.25
2022-09-15T03:44:53.488Z,100200.13
2022-09-15T03:47:20.256Z,100201.38
2022-09-15T03:49:46.818Z,100203.38
2022-09-15T03:52:13.411Z,100197.97
2022-09-15T03:54:40.609Z,100195.19
2022-09-15T03:57:07.224Z,100197.69
2022-09-15T03:59:34.043Z,100197.91
2022-09-15T04:02:00.651Z,100187.94
2022-09-15T04:04:27.273Z,100189.50
2022-09-15T04:06:53.816Z,100183.47
2022-09-15T04:09:21.587Z,100191.25
2022-09-15T04:11:48.271Z,100184.66
2022-09-15T04:14:14.903Z,100186.97
2022-09-15T04:16:41.506Z,100187.66
2022-09-15T04:19:08.303Z,100195.56
2022-09-15T04:21:34.844Z,100191.78
2022-09-15T04:24:01.605Z,100199.66
2022-09-15T04:26:31.421Z,100199.47
2022-09-15T04:29:03.055Z,100202.84
2022-09-15T04:31:31.248Z,100197.78
2022-09-15T04:33:57.913Z,100205.66
2022-09-15T04:36:26.095Z,100203.78
2022-09-15T04:38:52.918Z,100209.44
2022-09-15T04:41:19.826Z,100205.19
2022-09-15T04:43:46.660Z,100195.50
2022-09-15T04:46:15.062Z,100206.19
2022-09-15T04:48:41.944Z,100203.03
2022-09-15T04:51:12.212Z,100207.69
2022-09-15T04:53:39.188Z,100205.47
2022-09-15T04:56:16.825Z,100208.53
2022-09-15T04:58:49.254Z,100205.88
2022-09-15T05:01:18.312Z,100206.72
2022-09-15T05:03:46.570Z,100211.53
2022-09-15T05:06:16.378Z,100215.50
2022-09-15T05:08:43.489Z,100213.34
2022-09-15T05:11:12.022Z,100222.34
2022-09-15T05:13:39.510Z,100220.00
2022-09-15T05:16:08.137Z,100215.50
2022-09-15T05:18:35.210Z,100211.06
2022-09-15T05:21:03.617Z,100216.00
2022-09-15T05:23:30.213Z,100221.88
2022-09-15T05:25:58.251Z,100223.69
2022-09-15T05:28:25.092Z,100227.91
2022-09-15T05:30:52.799Z,100224.41
2022-09-15T05:33:21.003Z,100227.22
2022-09-15T05:35:57.827Z,100228.19
2022-09-15T05:38:25.481Z,100228.38
2022-09-15T05:40:52.610Z,100226.00
2022-09-15T05:43:19.244Z,100224.88
2022-09-15T05:45:54.432Z,100222.31
2022-09-15T05:48:21.039Z,100233.53
2022-09-15T05:50:52.079Z,100231.53
2022-09-15T05:53:19.324Z,100241.00
2022-09-15T05:55:46.128Z,100238.13
2022-09-15T05:58:13.338Z,100234.09
2022-09-15T06:00:41.685Z,100236.31
2022-09-15T06:03:14.176Z,100237.91
2022-09-15T06:05:41.097Z,100244.34
2022-09-15T06:08:07.684Z,100242.44
2022-09-15T06:10:34.337Z,100248.88
2022-09-15T06:13:00.878Z,100244.84
2022-09-15T06:15:27.634Z,100247.38
2022-09-15T06:17:54.207Z,100248.81
2022-09-15T06:20:21.417Z,100252.06
2022-09-15T06:22:48.259Z,100254.50
2022-09-15T06:25:15.291Z,100261.50
2022-09-15T06:27:42.173Z,100253.50
2022-09-15T06:30:10.162Z,100263.94
2022-09-15T06:32:36.831Z,100261.38
2022-09-15T06:35:07.349Z,100269.72
2022-09-15T06:37:34.809Z,100267.06
2022-09-15T06:40:02.058Z,100274.34
2022-09-15T06:42:28.721Z,100266.84
2022-09-15T06:44:55.468Z,100264.34
2022-09-15T06:47:22.009Z,100263.34
2022-09-15T06:49:48.635Z,100267.84
2022-09-15T06:52:15.162Z,100276.84
2022-09-15T06:54:41.786Z,100268.03
2022-09-15T06:57:08.349Z,100264.50
2022-09-15T06:59:34.931Z,100266.84
2022-09-15T07:02:05.105Z,100266.84
2022-09-15T07:04:32.062Z,100267.06
2022-09-15T07:06:58.609Z,100274.09
2022-09-15T07:09:25.203Z,100270.50
2022-09-15T07:11:51.786Z,100289.31
2022-09-15T07:14:18.349Z,100299.97
2022-09-15T07:16:44.990Z,100298.72
2022-09-15T07:19:11.738Z,100305.03
2022-09-15T07:21:38.373Z,100305.47
2022-09-15T07:24:07.202Z,100304.94
2022-09-15T07:26:34.542Z,100307.94
2022-09-15T07:29:03.613Z,100309.75
2022-09-15T07:31:31.971Z,100315.97
2022-09-15T07:34:02.288Z,100311.34
2022-09-15T07:36:29.605Z,100315.16
2022-09-15T07:38:56.234Z,100321.09
2022-09-15T07:41:25.476Z,100327.00
2022-09-15T07:43:54.073Z,100325.03
2022-09-15T07:46:22.122Z,100324.63
2022-09-15T07:48:50.583Z,100331.69
2022-09-15T07:51:17.785Z,100323.41
2022-09-15T07:53:45.963Z,100331.59
2022-09-15T07:56:12.951Z,100327.91
2022-09-15T07:58:39.868Z,100329.22
2022-09-15T08:01:08.378Z,100333.19
2022-09-15T08:03:34.999Z,100329.41
2022-09-15T08:06:02.954Z,100327.00
2022-09-15T08:08:30.156Z,100327.84
2022-09-15T08:10:56.930Z,100323.06
2022-09-15T08:13:24.622Z,100335.19
2022-09-15T08:15:52.306Z,100346.19
2022-09-15T08:18:18.953Z,100349.00
2022-09-15T08:20:45.517Z,100345.22
2022-09-15T08:23:12.079Z,100352.00
2022-09-15T08:25:39.394Z,100351.16
2022-09-15T08:28:06.040Z,100351.88
2022-09-15T08:30:32.854Z,100353.44
2022-09-15T08:32:59.423Z,100367.25
2022-09-15T08:35:26.191Z,100369.09
2022-09-15T08:37:54.901Z,100367.44
2022-09-15T08:40:27.502Z,100368.56
2022-09-15T08:42:55.907Z,100372.78
2022-09-15T08:45:32.587Z,100364.50
2022-09-15T08:48:01.708Z,100367.13
2022-09-15T08:50:31.957Z,100371.09
2022-09-15T08:53:11.046Z,100374.34
2022-09-15T08:55:41.767Z,100381.97
2022-09-15T08:58:17.049Z,100380.56
2022-09-15T09:00:46.000Z,100377.75
2022-09-15T09:03:49.574Z,100391.28
2022-09-15T09:06:28.586Z,100388.34
2022-09-15T09:09:06.479Z,100384.50
2022-09-15T09:12:09.242Z,100382.81
2022-09-15T09:14:56.915Z,100390.31
2022-09-15T09:18:02.069Z,100383.53
2022-09-15T09:20:45.564Z,100388.63
2022-09-15T09:23:19.291Z,100394.53
2022-09-15T09:25:46.296Z,100394.44
2022-09-15T09:28:32.680Z,100394.84
2022-09-15T09:31:08.150Z,100383.94
2022-09-15T09:33:45.196Z,100384.13
2022-09-15T09:36:14.246Z,100386.53
2022-09-15T09:38:45.823Z,100394.16
2022-09-15T09:41:18.535Z,100399.09
2022-09-15T09:43:47.051Z,100400.09
2022-09-15T09:46:16.446Z,100396.16
2022-09-15T09:48:55.055Z,100401.34
2022-09-15T09:51:43.609Z,100406.00
2022-09-15T09:54:12.903Z,100407.41
2022-09-15T09:56:40.463Z,100405.28
2022-09-15T09:59:32.692Z,100405.28
2022-09-15T10:02:26.474Z,100407.00
2022-09-15T10:04:55.532Z,100396.44
2022-09-15T10:07:25.520Z,100401.63
2022-09-15T10:10:02.089Z,100393.16
2022-09-15T10:12:40.054Z,100389.31
2022-09-15T10:15:08.836Z,100395.00
2022-09-15T10:17:43.312Z,100385.97
2022-09-15T10:20:32.896Z,100387.38
2022-09-15T10:23:07.053Z,100379.72
2022-09-15T10:25:57.625Z,100369.84
2022-09-15T10:28:25.989Z,100369.06
2022-09-15T10:31:00.109Z,100371.47
2022-09-15T10:33:31.775Z,100385.75
2022-09-15T10:36:19.510Z,100376.19
2022-09-15T10:38:48.703Z,100384.53
2022-09-15T10:41:27.955Z,100372.41
2022-09-15T10:44:26.553Z,100376.63
2022-09-15T10:47:11.780Z,100378.94
2022-09-15T10:49:52.091Z,100385.97
2022-09-15T10:52:46.088Z,100387.78
2022-09-15T10:55:52.837Z,100386.94
2022-09-15T10:58:48.779Z,100385.66
2022-09-15T11:01:30.761Z,100385.63
2022-09-15T11:04:16.732Z,100390.56
2022-09-15T11:07:12.700Z,100395.38
2022-09-15T11:09:49.892Z,100397.19
2022-09-15T11:12:29.231Z,100396.66
2022-09-15T11:15:02.108Z,100405.13
2022-09-15T11:17:40.959Z,100405.38
2022-09-15T11:20:45.899Z,100410.59
2022-09-15T11:23:20.828Z,100408.63
2022-09-15T11:25:51.155Z,100422.84
2022-09-15T11:28:29.965Z,100431.97
2022-09-15T11:31:04.146Z,100435.31
2022-09-15T11:33:47.087Z,100417.78
2022-09-15T11:36:18.316Z,100424.06
2022-09-15T11:38:57.734Z,100416.88
2022-09-15T11:41:28.347Z,100413.41
2022-09-15T11:44:16.006Z,100408.09
2022-09-15T11:47:02.202Z,100417.28
2022-09-15T11:49:35.324Z,100415.34
2022-09-15T11:52:27.386Z,100414.72
2022-09-15T11:55:03.471Z,100421.25
2022-09-15T11:57:37.009Z,100427.47
2022-09-15T12:00:13.441Z,100425.88
2022-09-15T12:03:07.237Z,100429.53
2022-09-15T12:05:41.073Z,100430.84
2022-09-15T12:08:22.026Z,100428.53
2022-09-15T12:10:55.099Z,100423.19
2022-09-15T12:13:31.068Z,100427.31
2022-09-15T12:16:00.783Z,100432.94
2022-09-15T12:18:46.688Z,100426.44
2022-09-15T12:21:19.529Z,100433.47
2022-09-15T12:23:54.786Z,100440.09
2022-09-15T12:26:23.459Z,100443.06
2022-09-15T12:29:04.708Z,100436.13
2022-09-15T12:31:36.905Z,100438.69
2022-09-15T12:34:25.440Z,100451.22
2022-09-15T12:37:07.087Z,100446.00
2022-09-15T12:39:41.866Z,100452.03
2022-09-15T12:42:23.821Z,100443.97
2022-09-15T12:44:56.514Z,100444.22
2022-09-15T12:47:38.615Z,100447.72
2022-09-15T12:50:21.315Z,100450.41
2022-09-15T12:53:02.487Z,100453.09
2022-09-15T12:55:33.249Z,100458.03
2022-09-15T12:58:01.808Z,100456.88
2022-09-15T13:00:35.101Z,100451.59
2022-09-15T13:03:03.718Z,100443.13
2022-09-15T13:06:22.840Z,100447.94
2022-09-15T13:09:15.367Z,100449.94
2022-09-15T13:14:20.814Z,100435.41
2022-09-15T13:17:07.011Z,100432.47
2022-09-15T13:19:33.522Z,100434.59
2022-09-15T13:22:12.291Z,100425.56
2022-09-15T13:25:01.595Z,100429.84
2022-09-15T13:27:43.380Z,100438.31
2022-09-15T13:30:25.226Z,100428.19
2022-09-15T13:33:00.907Z,100414.47
2022-09-15T13:35:42.794Z,100415.59
2022-09-15T13:38:30.728Z,100412.16
2022-09-15T13:40:58.372Z,100403.69
2022-09-15T13:44:05.483Z,100413.91
2022-09-15T13:46:45.276Z,100410.63
2022-09-15T13:49:27.983Z,100403.16
2022-09-15T13:51:59.820Z,100394.84
2022-09-15T13:54:26.460Z,100392.44
2022-09-15T13:56:53.429Z,100398.41
2022-09-15T13:59:25.090Z,100397.69
2022-09-15T14:01:53.010Z,100398.69
2022-09-15T14:04:26.264Z,100392.16
2022-09-15T14:06:57.163Z,100387.81
2022-09-15T14:09:37.467Z,100394.16
2022-09-15T14:12:15.162Z,100398.53
2022-09-15T14:14:47.579Z,100394.44
2022-09-15T14:17:21.674Z,100399.66
2022-09-15T14:19:52.270Z,100404.59
2022-09-15T14:22:28.770Z,100400.66
2022-09-15T14:25:00.618Z,100401.22
2022-09-15T14:27:29.972Z,100397.66
2022-09-15T14:29:58.082Z,100403.75
2022-09-15T14:32:26.609Z,100400.22
2022-09-15T14:34:53.819Z,100396.09
2022-09-15T14:37:28.600Z,100397.41
2022-09-15T14:39:57.421Z,100390.47
2022-09-15T14:42:34.313Z,100406.25
2022-09-15T14:48:01.554Z,100402.06
2022-09-15T14:50:32.474Z,100394.69
2022-09-15T14:53:08.393Z,100401.03
2022-09-15T14:55:45.590Z,100400.91
2022-09-15T14:58:18.385Z,100401.47
2022-09-15T15:00:51.967Z,100392.03
2022-09-15T15:03:42.298Z,100395.41
2022-09-15T15:06:33.311Z,100404.03
2022-09-15T15:09:08.980Z,100390.47
2022-09-15T15:11:36.776Z,100397.38
2022-09-15T15:14:06.625Z,100407.56
2022-09-15T15:16:33.935Z,100403.47
2022-09-15T15:19:00.581Z,100391.72
2022-09-15T15:21:41.913Z,100403.00
2022-09-15T15:24:28.776Z,100401.00
2022-09-15T15:26:55.367Z,100399.41
2022-09-15T15:29:40.595Z,100401.72
2022-09-15T15:32:16.161Z,100402.56
2022-09-15T15:35:18.385Z,100405.13
2022-09-15T15:37:45.116Z,100398.06
2022-09-15T15:40:18.547Z,100400.34
2022-09-15T15:42:59.419Z,100389.75
2022-09-15T15:45:30.613Z,100397.22
2022-09-15T15:47:58.617Z,100395.53
2022-09-15T15:50:31.367Z,100404.44
2022-09-15T15:52:58.802Z,100404.56
2022-09-15T15:55:35.949Z,100401.88
2022-09-15T15:58:02.567Z,100409.81
2022-09-15T16:00:36.988Z,100406.28
2022-09-15T16:03:06.166Z,100406.00
2022-09-15T16:05:33.099Z,100411.06
2022-09-15T16:08:04.996Z,100410.94
2022-09-15T16:10:39.201Z,100414.91
2022-09-15T16:13:16.108Z,100406.56
2022-09-15T16:15:43.758Z,100407.84
2022-09-15T16:18:10.585Z,100411.25
2022-09-15T16:20:37.682Z,100415.34
2022-09-15T16:23:04.925Z,100414.50
2022-09-15T16:25:31.413Z,100422.13
2022-09-15T16:28:03.722Z,100424.63
2022-09-15T16:30:31.466Z,100424.50
2022-09-15T16:32:58.617Z,100423.50
2022-09-15T16:35:49.534Z,100424.63
2022-09-15T16:38:16.208Z,100425.22
2022-09-15T16:40:42.857Z,100428.88
2022-09-15T16:43:12.735Z,100421.28
2022-09-15T16:45:40.891Z,100423.50
2022-09-15T16:48:08.488Z,100420.69
2022-09-15T16:50:35.172Z,100425.38
2022-09-15T16:53:01.857Z,100433.25
2022-09-15T16:55:47.023Z,100433.13
2022-09-15T16:58:14.660Z,100429.44
2022-09-15T17:00:42.756Z,100437.19
2022-09-15T17:03:11.674Z,100433.38
2022-09-15T17:05:42.219Z,100436.28
2022-09-15T17:08:12.368Z,100438.28
2022-09-15T17:10:40.115Z,100451.53
2022-09-15T17:13:07.443Z,100451.78
2022-09-15T17:15:35.631Z,100443.91
2022-09-15T17:18:02.419Z,100444.59
2022-09-15T17:20:29.400Z,100446.59
2022-09-15T17:22:56.024Z,100447.81
2022-09-15T17:25:31.319Z,100460.25
2022-09-15T17:27:58.629Z,100464.88
2022-09-15T17:30:28.096Z,100453.91
2022-09-15T17:33:11.722Z,100457.69
2022-09-15T17:35:38.559Z,100456.41
2022-09-15T17:38:06.056Z,100461.34
2022-09-15T17:40:33.607Z,100449.91
2022-09-15T17:43:03.016Z,100449.09
2022-09-15T17:45:36.913Z,100464.88
2022-09-15T17:48:04.634Z,100450.75
2022-09-15T17:50:33.181Z,100456.13
2022-09-15T17:53:00.243Z,100459.38
2022-09-15T17:55:28.574Z,100460.78
2022-09-15T17:57:56.369Z,100453.97
2022-09-15T18:00:24.730Z,100452.88
2022-09-15T18:02:53.407Z,100450.06
2022-09-15T18:05:34.081Z,100453.72
2022-09-15T18:08:03.499Z,100449.34
2022-09-15T18:10:34.902Z,100453.28
2022-09-15T18:13:02.195Z,100460.34
2022-09-15T18:15:31.369Z,100454.69
2022-09-15T18:18:02.935Z,100449.88
2022-09-15T18:20:31.479Z,100461.16
2022-09-15T18:22:59.087Z,100468.31
2022-09-15T18:25:29.856Z,100463.09
2022-09-15T18:27:57.945Z,100469.47
2022-09-15T18:30:27.470Z,100468.56
2022-09-15T18:32:54.128Z,100469.28
2022-09-15T18:35:21.481Z,100476.28
2022-09-15T18:37:49.940Z,100483.75
2022-09-15T18:40:18.451Z,100479.94
2022-09-15T18:42:45.810Z,100489.34
2022-09-15T18:45:14.633Z,100496.53
2022-09-15T18:47:42.542Z,100490.72
2022-09-15T18:50:11.677Z,100484.81
2022-09-15T18:52:40.342Z,100494.38
2022-09-15T18:55:09.078Z,100488.69
2022-09-15T18:57:37.043Z,100489.44
2022-09-15T19:00:12.143Z,100495.09
2022-09-15T19:02:39.196Z,100496.22
2022-09-15T19:05:06.963Z,100501.56
2022-09-15T19:07:39.758Z,100510.13
2022-09-15T19:10:07.814Z,100502.50
2022-09-15T19:12:38.942Z,100499.00
2022-09-15T19:15:10.760Z,100509.25
2022-09-15T19:17:38.670Z,100501.03
2022-09-15T19:20:07.135Z,100509.44
2022-09-15T19:22:34.804Z,100515.31
2022-09-15T19:25:01.503Z,100517.00
2022-09-15T19:27:28.445Z,100519.28
2022-09-15T19:29:55.173Z,100522.69
2022-09-15T19:32:22.421Z,100517.88
2022-09-15T19:34:49.622Z,100522.75
2022-09-15T19:37:19.804Z,100517.41
2022-09-15T19:39:47.487Z,100526.47
2022-09-15T19:44:42.276Z,100531.06
2022-09-15T19:47:09.233Z,100530.50
2022-09-15T19:49:35.845Z,100533.03
2022-09-15T19:52:02.469Z,100539.84
2022-09-15T19:54:30.174Z,100538.03
2022-09-15T19:56:57.006Z,100540.50
2022-09-15T19:59:28.701Z,100546.19
2022-09-15T20:01:57.054Z,100543.53
2022-09-15T20:04:23.714Z,100539.81
2022-09-15T20:06:50.305Z,100539.81
2022-09-15T20:09:17.472Z,100545.16
2022-09-15T20:11:44.070Z,100541.16
2022-09-15T20:14:11.088Z,100544.91
2022-09-15T20:16:37.907Z,100555.47
2022-09-15T20:19:05.060Z,100552.69
2022-09-15T20:21:51.050Z,100546.38
2022-09-15T20:24:19.252Z,100559.75
2022-09-15T20:26:46.252Z,100555.59
2022-09-15T20:29:13.450Z,100557.06
2022-09-15T20:31:40.153Z,100563.63
2022-09-15T20:34:06.720Z,100562.19
2022-09-15T20:36:36.618Z,100555.63
2022-09-15T20:39:09.358Z,100568.25
2022-09-15T20:41:36.030Z,100563.91
2022-09-15T20:44:03.215Z,100564.13
2022-09-15T20:46:31.417Z,100568.50
2022-09-15T20:48:58.071Z,100567.16
2022-09-15T20:51:26.974Z,100564.47
2022-09-15T20:53:55.504Z,100559.72
2022-09-15T20:56:25.548Z,100565.00
2022-09-15T20:58:57.388Z,100570.34
2022-09-15T21:01:43.497Z,100566.81
2022-09-15T21:04:12.536Z,100568.50
2022-09-15T21:06:39.327Z,100563.63
2022-09-15T21:09:06.065Z,100567.25
2022-09-15T21:11:32.982Z,100572.72
2022-09-15T21:13:59.572Z,100569.94
2022-09-15T21:16:28.497Z,100564.72
2022-09-15T21:18:57.427Z,100566.91
2022-09-15T21:21:30.069Z,100568.72
2022-09-15T21:24:03.880Z,100573.31
2022-09-15T21:26:33.635Z,100562.78
2022-09-15T21:29:00.482Z,100561.19
2022-09-15T21:31:30.271Z,100570.31
2022-09-15T21:33:57.978Z,100572.50
2022-09-15T21:36:29.800Z,100568.97
2022-09-15T21:38:58.345Z,100563.50
2022-09-15T21:41:27.452Z,100571.13
2022-09-15T21:43:55.747Z,100573.00
2022-09-15T21:46:25.258Z,100564.34
2022-09-15T21:48:51.908Z,100572.25
2022-09-15T21:51:24.254Z,100575.41
2022-09-15T21:53:52.492Z,100576.75
2022-09-15T21:56:19.183Z,100583.41
2022-09-15T21:58:46.145Z,100585.34
2022-09-15T22:01:20.846Z,100587.53
2022-09-15T22:03:49.866Z,100586.94
2022-09-15T22:06:18.693Z,100582.06
2022-09-15T22:08:45.653Z,100588.59
2022-09-15T22:11:13.024Z,100598.69
2022-09-15T22:13:41.729Z,100589.06
2022-09-15T22:16:11.801Z,100596.22
2022-09-15T22:18:40.008Z,100599.13
2022-09-15T22:21:25.500Z,100595.22
2022-09-15T22:23:54.983Z,100594.59
2022-09-15T22:26:24.025Z,100595.59
2022-09-15T22:28:50.651Z,100587.34
2022-09-15T22:31:19.632Z,100595.97
2022-09-15T22:33:46.999Z,100585.16
2022-09-15T22:36:18.802Z,100584.31
2022-09-15T22:38:46.059Z,100600.09
2022-09-15T22:41:14.420Z,100588.19
2022-09-15T22:43:42.148Z,100584.31
2022-09-15T22:46:09.501Z,100586.66
2022-09-15T22:48:40.968Z,100590.63
2022-09-15T22:51:09.411Z,100583.91
2022-09-15T22:53:36.805Z,100586.38
2022-09-15T22:56:07.829Z,100587.81
2022-09-15T22:58:35.612Z,100587.81
2022-09-15T23:01:04.556Z,100591.13
2022-09-15T23:03:31.870Z,100592.94
2022-09-15T23:05:59.848Z,100587.34
2022-09-15T23:08:26.686Z,100584.44
2022-09-15T23:10:53.585Z,100578.59
2022-09-15T23:13:20.264Z,100579.44
2022-09-15T23:15:49.456Z,100577.63
2022-09-15T23:18:16.292Z,100575.56
2022-09-15T23:20:44.998Z,100579.78
2022-09-15T23:23:11.601Z,100571.28
2022-09-15T23:25:38.309Z,100574.94
2022-09-15T23:28:05.744Z,100575.78
2022-09-15T23:30:32.368Z,100579.41
2022-09-15T23:32:58.978Z,100580.50
2022-09-15T23:35:26.311Z,100578.34
2022-09-15T23:37:53.081Z,100575.78
2022-09-15T23:40:20.425Z,100572.53
2022-09-15T23:42:47.482Z,100567.09
2022-09-15T23:45:14.135Z,100562.34
2022-09-15T23:47:40.758Z,100561.13
2022-09-15T23:50:07.695Z,100556.75
2022-09-15T23:52:34.324Z,100564.78
2022-09-15T23:55:00.929Z,100546.81
2022-09-15T23:57:27.652Z,100562.47
2022-09-15T23:59:54.256Z,100553.84
